Jones Mills, Pennsylvania
Current Conditions -  °F | °C
As of 10:50 AM on Monday 26 Jan 2015 (Local Time) from KLBE Reporting Station
Light Snow Light Snow  
Wind Chill: 24°   Ceiling: 1400
Heat Index: 30°   Visibility: 1mi
Dew Point: 28°   Wind: 6mph
Humidity: 93%   Direction: 100°E
Pressure: 29.72"   Gusts: NA
Location:  40.09°N, 79.34°W
Report Text: KLBE 261550Z 10005KT 1SM -SN SCT004 BKN014 M01/M02 A2972
Loading
Personal Weather Stations






























Interactive Weather Map New forecast layout! Learn more

10-Day Weather Forecast

Advertisements
Track Severe Weather on mobile